TAF KGRB
AMD KGRB 280650Z 2807/2906 25006KT P6SM BKN035 FM281000 28013G21KT P6SM BKN040 FM281400 31016G24KT P6SM SCT040 FM282300 29007KT P6SM SKC=
METAR KGRB
WC KGRB
WS KGRB
WV KGRB